createdAt,value
2023-05-05T00:00:13.340Z,19.79
2023-05-05T00:02:43.161Z,19.72
2023-05-05T00:05:11.670Z,19.61
2023-05-05T00:07:40.135Z,19.57
2023-05-05T00:10:08.901Z,18.89
2023-05-05T00:12:37.665Z,18.76
2023-05-05T00:15:07.399Z,19.19
2023-05-05T00:17:35.640Z,19.21
2023-05-05T00:20:06.408Z,18.63
2023-05-05T00:22:34.945Z,18.94
2023-05-05T00:25:04.863Z,19.22
2023-05-05T00:27:33.186Z,19.25
2023-05-05T00:30:01.782Z,18.87
2023-05-05T00:32:30.083Z,18.91
2023-05-05T00:34:58.353Z,18.99
2023-05-05T00:37:28.275Z,19.00
2023-05-05T00:39:56.508Z,19.12
2023-05-05T00:42:24.773Z,19.00
2023-05-05T00:44:53.011Z,18.64
2023-05-05T00:47:21.357Z,19.02
2023-05-05T00:49:49.559Z,19.04
2023-05-05T00:52:17.834Z,18.27
2023-05-05T00:54:47.701Z,18.49
2023-05-05T00:57:16.010Z,18.40
2023-05-05T00:59:44.841Z,18.39
2023-05-05T01:02:13.160Z,18.14
2023-05-05T01:04:41.421Z,18.52
2023-05-05T01:07:18.443Z,18.23
2023-05-05T01:10:04.212Z,17.83
2023-05-05T01:12:49.423Z,18.32
2023-05-05T01:15:23.891Z,18.22
2023-05-05T01:17:57.176Z,18.13
2023-05-05T01:20:28.729Z,18.18
2023-05-05T01:23:00.600Z,18.43
2023-05-05T01:25:59.270Z,18.36
2023-05-05T01:28:39.734Z,17.89
2023-05-05T01:31:14.584Z,18.34
2023-05-05T01:33:47.399Z,18.45
2023-05-05T01:36:22.878Z,18.36
2023-05-05T01:38:54.912Z,18.50
2023-05-05T01:41:26.433Z,18.15
2023-05-05T01:43:55.693Z,18.07
2023-05-05T01:46:24.950Z,17.95
2023-05-05T01:48:55.009Z,18.21
2023-05-05T01:51:24.705Z,18.31
2023-05-05T01:53:54.281Z,17.93
2023-05-05T01:56:24.270Z,18.06
2023-05-05T01:58:54.308Z,17.96
2023-05-05T02:01:23.772Z,18.21
2023-05-05T02:03:52.483Z,17.15
2023-05-05T02:06:22.914Z,17.69
2023-05-05T02:08:51.572Z,18.11
2023-05-05T02:11:21.528Z,18.11
2023-05-05T02:13:51.063Z,18.02
2023-05-05T02:16:19.838Z,18.13
2023-05-05T02:18:48.730Z,18.16
2023-05-05T02:21:18.152Z,17.74
2023-05-05T02:23:51.723Z,17.06
2023-05-05T02:26:21.875Z,17.64
2023-05-05T02:28:54.103Z,17.93
2023-05-05T02:31:24.258Z,18.03
2023-05-05T02:33:54.608Z,17.96
2023-05-05T02:36:24.942Z,17.29
2023-05-05T02:38:57.335Z,17.59
2023-05-05T02:41:26.956Z,17.33
2023-05-05T02:43:56.231Z,17.20
2023-05-05T02:46:24.527Z,16.68
2023-05-05T02:48:52.816Z,16.98
2023-05-05T02:51:21.170Z,18.02
2023-05-05T02:53:49.451Z,18.06
2023-05-05T02:56:22.769Z,17.91
2023-05-05T02:58:54.177Z,17.81
2023-05-05T03:01:39.360Z,17.70
2023-05-05T03:04:10.338Z,17.64
2023-05-05T03:06:42.147Z,17.78
2023-05-05T03:09:12.135Z,16.46
2023-05-05T03:11:46.036Z,17.14
2023-05-05T03:14:16.979Z,17.13
2023-05-05T03:16:46.272Z,17.25
2023-05-05T03:19:16.218Z,17.02
2023-05-05T03:21:44.849Z,17.27
2023-05-05T03:24:16.446Z,17.64
2023-05-05T03:26:47.147Z,17.11
2023-05-05T03:29:15.966Z,17.18
2023-05-05T03:31:44.300Z,17.11
2023-05-05T03:34:12.617Z,17.04
2023-05-05T03:36:41.919Z,17.16
2023-05-05T03:39:10.788Z,17.43
2023-05-05T03:41:39.114Z,16.88
2023-05-05T03:44:08.715Z,16.93
2023-05-05T03:46:37.038Z,16.67
2023-05-05T03:49:05.310Z,16.80
2023-05-05T03:51:33.579Z,17.17
2023-05-05T03:54:02.000Z,17.52
2023-05-05T03:56:30.237Z,17.15
2023-05-05T03:58:58.509Z,17.05
2023-05-05T04:01:29.926Z,17.44
2023-05-05T04:03:58.319Z,17.42
2023-05-05T04:06:26.764Z,17.18
2023-05-05T04:08:55.135Z,17.22
2023-05-05T04:11:23.654Z,17.05
2023-05-05T04:13:51.993Z,17.21
2023-05-05T04:16:20.754Z,17.20
2023-05-05T04:18:50.655Z,17.35
2023-05-05T04:21:18.891Z,18.34
2023-05-05T04:23:47.105Z,18.94
2023-05-05T04:26:15.381Z,19.69
2023-05-05T04:28:43.614Z,20.16
2023-05-05T04:31:11.881Z,20.86
2023-05-05T04:33:40.260Z,19.74
2023-05-05T04:36:10.353Z,21.10
2023-05-05T04:38:38.631Z,22.14
2023-05-05T04:41:07.432Z,22.69
2023-05-05T04:43:35.838Z,21.98
2023-05-05T04:46:04.254Z,21.42
2023-05-05T04:51:05.628Z,20.75
2023-05-05T04:53:35.293Z,20.86
2023-05-05T04:56:03.634Z,21.98
2023-05-05T04:58:32.168Z,22.29
2023-05-05T05:01:00.474Z,22.85
2023-05-05T05:03:28.747Z,23.29
2023-05-05T05:05:57.021Z,23.43
2023-05-05T05:08:25.325Z,23.40
2023-05-05T05:10:54.912Z,23.44
2023-05-05T05:13:23.232Z,24.05
2023-05-05T05:15:51.578Z,24.03
2023-05-05T05:18:19.817Z,23.75
2023-05-05T05:20:48.079Z,24.34
2023-05-05T05:23:16.356Z,25.07
2023-05-05T05:25:44.900Z,23.72
2023-05-05T05:28:14.570Z,24.70
2023-05-05T05:30:42.818Z,25.06
2023-05-05T05:33:11.216Z,24.61
2023-05-05T05:35:39.636Z,24.70
2023-05-05T05:38:08.023Z,24.67
2023-05-05T05:40:36.424Z,25.24
2023-05-05T05:43:05.080Z,24.29
2023-05-05T05:45:34.715Z,23.71
2023-05-05T05:48:02.977Z,23.88
2023-05-05T05:50:31.335Z,24.14
2023-05-05T05:52:59.650Z,24.31
2023-05-05T05:55:27.864Z,24.16
2023-05-05T05:57:56.156Z,24.39
2023-05-05T06:00:24.912Z,24.26
2023-05-05T06:02:54.633Z,24.10
2023-05-05T06:05:22.900Z,23.82
2023-05-05T06:07:51.164Z,25.26
2023-05-05T06:10:27.955Z,25.80
2023-05-05T06:12:56.754Z,25.84
2023-05-05T06:15:25.858Z,26.19
2023-05-05T06:17:55.551Z,26.40
2023-05-05T06:20:23.830Z,26.64
2023-05-05T06:22:52.099Z,26.42
2023-05-05T06:25:20.515Z,26.69
2023-05-05T06:27:48.900Z,26.02
2023-05-05T06:30:17.858Z,26.96
2023-05-05T06:32:46.272Z,26.45
2023-05-05T06:35:16.101Z,26.66
2023-05-05T06:37:45.139Z,27.48
2023-05-05T06:40:14.053Z,27.85
2023-05-05T06:42:42.447Z,28.00
2023-05-05T06:45:11.565Z,27.18
2023-05-05T06:47:39.955Z,26.90
2023-05-05T06:50:10.265Z,27.23
2023-05-05T06:55:26.181Z,26.01
2023-05-05T06:57:54.518Z,26.73
2023-05-05T07:00:23.477Z,26.67
2023-05-05T07:02:51.781Z,25.78
2023-05-05T07:05:20.342Z,25.04
2023-05-05T07:07:53.734Z,25.87
2023-05-05T07:10:22.752Z,25.95
2023-05-05T07:12:52.265Z,25.76
2023-05-05T07:15:28.845Z,25.70
2023-05-05T07:17:58.075Z,25.93
2023-05-05T07:20:27.040Z,26.15
2023-05-05T07:22:56.731Z,25.93
2023-05-05T07:25:24.934Z,26.12
2023-05-05T07:27:53.196Z,25.89
2023-05-05T07:30:21.684Z,25.96
2023-05-05T07:32:51.290Z,25.90
2023-05-05T07:35:19.710Z,25.78
2023-05-05T07:37:48.216Z,26.36
2023-05-05T07:40:17.865Z,25.48
2023-05-05T07:42:47.400Z,25.48
2023-05-05T07:45:15.713Z,26.19
2023-05-05T07:47:44.260Z,26.46
2023-05-05T07:50:12.598Z,27.16
2023-05-05T07:55:12.017Z,26.87
2023-05-05T07:57:41.630Z,27.00
2023-05-05T08:00:11.483Z,27.86
2023-05-05T08:02:40.319Z,28.32
2023-05-05T08:05:09.724Z,28.54
2023-05-05T08:07:41.311Z,28.34
2023-05-05T08:10:11.899Z,28.89
2023-05-05T08:12:41.685Z,28.70
2023-05-05T08:15:11.194Z,28.45
2023-05-05T08:17:47.848Z,29.30
2023-05-05T08:20:16.362Z,29.40
2023-05-05T08:22:45.097Z,28.39
2023-05-05T08:25:13.943Z,29.19
2023-05-05T08:27:44.099Z,28.97
2023-05-05T08:30:13.301Z,28.48
2023-05-05T08:32:41.684Z,28.99
2023-05-05T08:35:10.903Z,28.88
2023-05-05T08:37:39.405Z,29.00
2023-05-05T08:40:08.950Z,28.68
2023-05-05T08:42:39.010Z,29.25
2023-05-05T08:45:11.079Z,29.60
2023-05-05T08:47:40.457Z,29.51
2023-05-05T08:50:11.638Z,29.09
2023-05-05T08:52:41.379Z,29.58
2023-05-05T08:55:15.922Z,30.08
2023-05-05T08:57:47.683Z,30.07
2023-05-05T09:00:19.647Z,29.92
2023-05-05T09:02:55.517Z,29.94
2023-05-05T09:05:27.411Z,31.00
2023-05-05T09:07:55.910Z,31.06
2023-05-05T09:10:25.728Z,29.97
2023-05-05T09:12:54.266Z,31.30
2023-05-05T09:15:24.220Z,32.32
2023-05-05T09:17:52.497Z,32.33
2023-05-05T09:20:20.870Z,31.80
2023-05-05T09:22:49.318Z,30.93
2023-05-05T09:25:18.904Z,30.72
2023-05-05T09:27:48.770Z,31.75
2023-05-05T09:30:18.603Z,31.26
2023-05-05T09:32:49.941Z,30.62
2023-05-05T09:35:18.652Z,30.97
2023-05-05T09:37:47.080Z,30.43
2023-05-05T09:40:16.754Z,31.00
2023-05-05T09:42:45.901Z,32.05
2023-05-05T09:45:27.588Z,31.38
2023-05-05T09:48:00.352Z,31.69
2023-05-05T09:50:31.175Z,31.42
2023-05-05T09:53:00.769Z,31.75
2023-05-05T09:55:30.861Z,31.90
2023-05-05T09:58:06.342Z,31.41
2023-05-05T10:00:41.084Z,32.97
2023-05-05T10:03:10.774Z,32.85
2023-05-05T10:05:48.676Z,32.65
2023-05-05T10:08:17.898Z,32.03
2023-05-05T10:10:52.400Z,32.04
2023-05-05T10:13:21.906Z,32.00
2023-05-05T10:15:51.864Z,32.73
2023-05-05T10:18:23.661Z,31.73
2023-05-05T10:20:58.379Z,31.94
2023-05-05T10:23:34.391Z,32.29
2023-05-05T10:26:04.514Z,32.93
2023-05-05T10:28:34.511Z,32.42
2023-05-05T10:31:10.110Z,32.80
2023-05-05T10:33:55.931Z,33.22
2023-05-05T10:36:25.749Z,32.23
2023-05-05T10:38:58.143Z,31.56
2023-05-05T10:41:27.235Z,32.10
2023-05-05T10:43:57.600Z,32.26
2023-05-05T10:46:26.152Z,32.21
2023-05-05T10:49:01.272Z,32.82
2023-05-05T10:54:29.585Z,33.51
2023-05-05T10:57:01.229Z,32.75
2023-05-05T10:59:43.002Z,33.18
2023-05-05T11:02:21.901Z,33.61
2023-05-05T11:05:12.235Z,33.17
2023-05-05T11:07:40.348Z,32.98
2023-05-05T11:10:10.021Z,33.93
2023-05-05T11:13:15.764Z,33.94
2023-05-05T11:15:44.012Z,35.34
2023-05-05T11:18:35.848Z,35.29
2023-05-05T11:21:18.488Z,35.51
2023-05-05T11:23:51.481Z,35.02
2023-05-05T11:26:36.196Z,33.17
2023-05-05T11:29:06.403Z,33.78
2023-05-05T11:31:34.580Z,33.00
2023-05-05T11:34:24.835Z,34.04
2023-05-05T11:36:54.286Z,34.52
2023-05-05T11:39:25.081Z,33.50
2023-05-05T11:42:10.381Z,35.29
2023-05-05T11:44:39.240Z,35.40
2023-05-05T11:47:29.806Z,36.14
2023-05-05T11:49:58.317Z,35.51
2023-05-05T11:52:31.279Z,34.64
2023-05-05T11:55:03.740Z,34.47
2023-05-05T11:57:32.080Z,33.71
2023-05-05T12:00:02.202Z,35.09
2023-05-05T12:02:31.423Z,33.28
2023-05-05T12:05:00.718Z,32.30
2023-05-05T12:07:32.071Z,33.17
2023-05-05T12:10:01.006Z,33.58
2023-05-05T12:12:36.979Z,33.74
2023-05-05T12:15:06.558Z,35.14
2023-05-05T12:17:42.995Z,34.56
2023-05-05T12:20:12.927Z,35.08
2023-05-05T12:22:43.730Z,33.75
2023-05-05T12:25:12.229Z,34.66
2023-05-05T12:27:41.286Z,34.75
2023-05-05T12:30:14.610Z,34.41
2023-05-05T12:32:43.292Z,34.95
2023-05-05T12:35:13.853Z,34.93
2023-05-05T12:37:43.677Z,35.99
2023-05-05T12:40:45.719Z,34.44
2023-05-05T12:43:28.152Z,35.48
2023-05-05T12:46:10.230Z,35.68
2023-05-05T12:48:40.248Z,35.82
2023-05-05T12:51:13.306Z,36.51
2023-05-05T12:53:43.133Z,35.34
2023-05-05T12:56:30.065Z,34.53
2023-05-05T12:58:58.537Z,35.63
2023-05-05T13:01:26.868Z,35.12
2023-05-05T13:04:11.364Z,34.34
2023-05-05T13:06:40.436Z,34.62
2023-05-05T13:09:11.056Z,36.00
2023-05-05T13:11:39.883Z,35.85
2023-05-05T13:14:08.550Z,36.18
2023-05-05T13:16:36.930Z,35.83
2023-05-05T13:19:05.249Z,36.05
2023-05-05T13:21:33.731Z,35.59
2023-05-05T13:24:19.749Z,35.00
2023-05-05T13:26:52.769Z,35.79
2023-05-05T13:29:21.161Z,35.83
2023-05-05T13:31:49.979Z,35.98
2023-05-05T13:34:18.611Z,36.22
2023-05-05T13:36:46.798Z,36.26
2023-05-05T13:39:15.111Z,36.31
2023-05-05T13:41:44.708Z,36.71
2023-05-05T13:44:15.647Z,36.23
2023-05-05T13:46:43.974Z,36.90
2023-05-05T13:49:12.283Z,36.03
2023-05-05T13:51:40.537Z,36.76
2023-05-05T13:54:09.600Z,37.56
2023-05-05T13:56:37.859Z,37.24
2023-05-05T13:59:06.166Z,37.38
2023-05-05T14:01:35.909Z,36.38
2023-05-05T14:04:05.756Z,36.47
2023-05-05T14:06:34.086Z,37.01
2023-05-05T14:09:05.602Z,37.25
2023-05-05T14:11:33.912Z,38.04
2023-05-05T14:14:02.767Z,36.66
2023-05-05T14:16:31.298Z,36.28
2023-05-05T14:19:01.608Z,36.42
2023-05-05T14:21:29.838Z,35.86
2023-05-05T14:23:58.110Z,35.03
2023-05-05T14:26:27.266Z,35.95
2023-05-05T14:28:55.854Z,36.49
2023-05-05T14:31:24.175Z,36.13
2023-05-05T14:33:53.437Z,36.10
2023-05-05T14:36:23.625Z,35.99
2023-05-05T14:38:52.062Z,36.26
2023-05-05T14:41:20.545Z,36.44
2023-05-05T14:43:48.782Z,36.33
2023-05-05T14:46:17.117Z,35.94
2023-05-05T14:48:46.346Z,36.35
2023-05-05T14:51:15.288Z,36.03
2023-05-05T14:53:44.966Z,36.15
2023-05-05T14:56:13.170Z,36.36
2023-05-05T14:58:41.448Z,35.35
2023-05-05T15:01:09.828Z,34.34
2023-05-05T15:03:38.262Z,35.35
2023-05-05T15:06:06.719Z,34.41
2023-05-05T15:08:35.061Z,34.52
2023-05-05T15:11:04.787Z,33.95
2023-05-05T15:13:33.007Z,34.47
2023-05-05T15:16:01.432Z,34.55
2023-05-05T15:18:29.747Z,34.38
2023-05-05T15:20:58.170Z,34.33
2023-05-05T15:23:26.477Z,34.25
2023-05-05T15:25:54.927Z,33.76
2023-05-05T15:28:24.522Z,34.08
2023-05-05T15:30:52.853Z,33.16
2023-05-05T15:33:21.099Z,33.62
2023-05-05T15:35:49.400Z,34.30
2023-05-05T15:38:17.674Z,33.76
2023-05-05T15:40:48.894Z,34.87
2023-05-05T15:43:18.383Z,35.01
2023-05-05T15:45:47.996Z,34.94
2023-05-05T15:48:16.259Z,34.86
2023-05-05T15:50:44.577Z,34.21
2023-05-05T15:53:12.851Z,33.53
2023-05-05T15:55:41.616Z,34.39
2023-05-05T15:58:09.954Z,34.37
2023-05-05T16:00:38.500Z,33.37
2023-05-05T16:03:08.473Z,34.41
2023-05-05T16:05:36.732Z,33.87
2023-05-05T16:08:09.697Z,34.81
2023-05-05T16:10:38.123Z,35.36
2023-05-05T16:13:06.401Z,34.05
2023-05-05T16:15:35.611Z,34.33
2023-05-05T16:18:03.963Z,34.25
2023-05-05T16:20:33.746Z,34.71
2023-05-05T16:23:02.052Z,34.01
2023-05-05T16:25:30.345Z,34.04
2023-05-05T16:28:00.184Z,32.80
2023-05-05T16:30:29.274Z,34.22
2023-05-05T16:32:57.593Z,34.42
2023-05-05T16:35:25.856Z,34.54
2023-05-05T16:37:55.429Z,33.57
2023-05-05T16:40:23.817Z,34.19
2023-05-05T16:42:52.267Z,34.45
2023-05-05T16:45:20.538Z,33.84
2023-05-05T16:47:48.848Z,34.79
2023-05-05T16:50:17.781Z,34.24
2023-05-05T16:52:46.058Z,34.30
2023-05-05T16:55:16.025Z,33.91
2023-05-05T16:57:44.305Z,34.01
2023-05-05T17:00:13.877Z,33.70
2023-05-05T17:02:42.225Z,33.40
2023-05-05T17:05:11.107Z,33.69
2023-05-05T17:07:39.545Z,33.39
2023-05-05T17:10:09.203Z,33.18
2023-05-05T17:12:38.844Z,32.73
2023-05-05T17:15:09.701Z,32.64
2023-05-05T17:17:38.260Z,32.89
2023-05-05T17:20:07.914Z,32.59
2023-05-05T17:22:36.260Z,32.50
2023-05-05T17:25:05.102Z,32.63
2023-05-05T17:27:33.359Z,32.49
2023-05-05T17:30:03.094Z,32.50
2023-05-05T17:32:35.996Z,31.68
2023-05-05T17:35:05.056Z,31.65
2023-05-05T17:37:33.694Z,31.68
2023-05-05T17:40:01.919Z,31.43
2023-05-05T17:42:33.603Z,30.84
2023-05-05T17:45:03.366Z,30.63
2023-05-05T17:47:31.993Z,30.48
2023-05-05T17:50:00.338Z,30.60
2023-05-05T17:52:28.617Z,30.54
2023-05-05T17:54:56.954Z,30.63
2023-05-05T17:57:25.241Z,29.76
2023-05-05T17:59:53.698Z,30.18
2023-05-05T18:02:24.229Z,30.29
2023-05-05T18:04:52.376Z,30.23
2023-05-05T18:07:20.514Z,29.67
2023-05-05T18:09:48.769Z,29.82
2023-05-05T18:12:17.408Z,29.42
2023-05-05T18:14:45.660Z,29.92
2023-05-05T18:17:13.908Z,29.60
2023-05-05T18:19:46.577Z,30.10
2023-05-05T18:22:16.457Z,29.08
2023-05-05T18:24:44.827Z,29.79
2023-05-05T18:27:13.282Z,30.04
2023-05-05T18:29:41.646Z,29.95
2023-05-05T18:32:09.954Z,30.12
2023-05-05T18:34:38.191Z,29.95
2023-05-05T18:37:07.976Z,30.25
2023-05-05T18:39:36.390Z,30.33
2023-05-05T18:42:05.386Z,30.21
2023-05-05T18:44:34.783Z,30.10
2023-05-05T18:47:03.180Z,29.83
2023-05-05T18:49:31.815Z,29.95
2023-05-05T18:52:00.167Z,30.09
2023-05-05T18:54:29.970Z,30.27
2023-05-05T18:56:59.274Z,30.17
2023-05-05T18:59:27.505Z,30.17
2023-05-05T19:01:55.772Z,30.08
2023-05-05T19:04:30.808Z,30.23
2023-05-05T19:06:59.927Z,30.45
2023-05-05T19:09:29.654Z,29.77
2023-05-05T19:11:57.902Z,27.53
2023-05-05T19:14:26.194Z,24.79
2023-05-05T19:16:55.884Z,22.56
2023-05-05T19:19:24.370Z,21.73
2023-05-05T19:21:52.704Z,20.92
2023-05-05T19:24:21.008Z,20.09
2023-05-05T19:26:50.740Z,20.70
2023-05-05T19:29:18.977Z,20.12
2023-05-05T19:31:47.249Z,20.42
2023-05-05T19:34:15.573Z,20.27
2023-05-05T19:40:24.615Z,21.22
2023-05-05T19:42:54.166Z,21.66
2023-05-05T19:45:22.486Z,22.30
2023-05-05T19:47:50.801Z,21.94
2023-05-05T19:50:19.204Z,22.82
2023-05-05T19:52:47.429Z,22.47
2023-05-05T19:55:15.839Z,22.33
2023-05-05T19:57:44.180Z,21.98
2023-05-05T20:00:14.881Z,22.26
2023-05-05T20:02:45.229Z,22.58
2023-05-05T20:05:17.719Z,22.64
2023-05-05T20:07:46.866Z,22.43
2023-05-05T20:10:15.834Z,22.88
2023-05-05T20:12:49.150Z,23.16
2023-05-05T20:15:20.861Z,22.58
2023-05-05T20:17:49.699Z,22.75
2023-05-05T20:20:20.092Z,23.23
2023-05-05T20:23:37.672Z,22.42
2023-05-05T20:26:06.358Z,22.48
2023-05-05T20:28:34.550Z,22.25
2023-05-05T20:31:04.141Z,22.00
2023-05-05T20:33:32.403Z,22.25
2023-05-05T20:36:00.670Z,21.93
2023-05-05T20:38:28.958Z,22.20
2023-05-05T20:40:57.176Z,22.57
2023-05-05T20:43:25.639Z,21.86
2023-05-05T20:45:53.870Z,21.99
2023-05-05T20:48:23.436Z,22.32
2023-05-05T20:50:52.200Z,21.77
2023-05-05T20:53:20.971Z,21.89
2023-05-05T20:55:49.856Z,22.08
2023-05-05T20:58:18.190Z,22.78
2023-05-05T21:00:46.418Z,22.34
2023-05-05T21:03:14.706Z,22.13
2023-05-05T21:05:44.702Z,20.67
2023-05-05T21:08:12.865Z,23.07
2023-05-05T21:10:41.179Z,22.64
2023-05-05T21:13:09.477Z,23.01
2023-05-05T21:15:38.078Z,23.20
2023-05-05T21:18:07.511Z,23.54
2023-05-05T21:20:35.832Z,23.22
2023-05-05T21:23:05.441Z,23.43
2023-05-05T21:25:33.671Z,22.93
2023-05-05T21:28:01.883Z,23.29
2023-05-05T21:30:30.262Z,23.46
2023-05-05T21:32:58.505Z,23.16
2023-05-05T21:35:26.785Z,23.97
2023-05-05T21:37:55.012Z,23.89
2023-05-05T21:40:24.593Z,24.19
2023-05-05T21:42:52.773Z,23.28
2023-05-05T21:45:21.609Z,22.81
2023-05-05T21:47:49.853Z,22.31
2023-05-05T21:50:18.097Z,22.81
2023-05-05T21:52:46.259Z,22.26
2023-05-05T21:55:14.443Z,21.94
2023-05-05T21:57:44.465Z,22.01
2023-05-05T22:00:16.684Z,22.40
2023-05-05T22:02:45.482Z,22.69
2023-05-05T22:05:13.949Z,23.08
2023-05-05T22:07:42.201Z,23.61
2023-05-05T22:10:11.406Z,23.37
2023-05-05T22:12:39.972Z,23.36
2023-05-05T22:15:10.992Z,23.09
2023-05-05T22:17:39.920Z,23.29
2023-05-05T22:20:10.861Z,22.86
2023-05-05T22:22:39.827Z,22.54
2023-05-05T22:25:09.656Z,22.63
2023-05-05T22:27:38.159Z,22.32
2023-05-05T22:30:08.282Z,22.86
2023-05-05T22:32:38.594Z,22.56
2023-05-05T22:35:08.127Z,22.32
2023-05-05T22:37:36.621Z,22.00
2023-05-05T22:40:05.860Z,22.16
2023-05-05T22:42:34.109Z,22.63
2023-05-05T22:45:02.414Z,22.49
2023-05-05T22:47:30.989Z,22.94
2023-05-05T22:50:00.874Z,22.96
2023-05-05T22:52:29.234Z,22.95
2023-05-05T22:54:58.074Z,23.54
2023-05-05T22:57:26.353Z,23.80
2023-05-05T22:59:54.639Z,24.15
2023-05-05T23:02:22.914Z,23.91
2023-05-05T23:04:52.606Z,23.63
2023-05-05T23:07:22.361Z,23.79
2023-05-05T23:09:50.647Z,24.19
2023-05-05T23:12:19.105Z,24.21
2023-05-05T23:14:47.350Z,24.02
2023-05-05T23:17:15.654Z,24.16
2023-05-05T23:19:43.851Z,24.41
2023-05-05T23:22:12.073Z,24.21
2023-05-05T23:24:41.705Z,24.27
2023-05-05T23:27:10.032Z,24.27
2023-05-05T23:29:38.329Z,24.24
2023-05-05T23:32:07.121Z,24.45
2023-05-05T23:34:35.349Z,23.95
2023-05-05T23:37:05.869Z,24.00
2023-05-05T23:39:35.052Z,24.12
2023-05-05T23:42:04.709Z,24.19
2023-05-05T23:44:32.942Z,23.91
2023-05-05T23:47:01.177Z,23.95
2023-05-05T23:49:29.405Z,24.01
2023-05-05T23:51:58.640Z,24.20
2023-05-05T23:54:27.269Z,23.95
2023-05-05T23:56:55.504Z,24.16
2023-05-05T23:59:25.911Z,24.06
